Etusivu
METAR-TAF:

METAR-TAF

Lentoasemat :

Büchel, Saksa

Leveyspiiri: 50-10N, Pituuspiiri: 007-04E, korkeus merenpinnasta: 478 m

Tämänhetkinen sää

Tämä raportti tehtiin 31 minuuttia sitten, kello 04.20 UTC
Tuuli 5 kn idästä/koillisesta
Lämpötila 0°C
Kosteus 51%
Ilmanpaine 1036 hPa

METAR: ETSB 240420Z AUTO 06005KT //// // ////// M00/M09 Q1036 ///

Aika: 05:51 (04:51 UTC)


TAF: puuttuu

Säähavainnot ja -ennusteet yli 4000 lentoasemalta (METAR- ja TAF-raportit).

Käytössä olevat sääasemat on merkitty karttaan keltaisilla ja punaisilla pisteillä.

Aseta hiiri pisteen päälle nähdäksesi sääaseman nimen.

Klikkaa sitten nähdäksesi säähavainnot ja -ennusteet.

Kartan vaihtaminen: klikkaa mustalla rastilla varustettuja vihreitä pisteitä, niin voit zoomata sisään; viivalla varustettua vihreää pistettä, niin voit zoomata ulos tai vihreitä nuolia, niin pääset viereisille kartoille.


METAR-TAF: